sensor_id;sensor_type;location;lat;lon;timestamp;pressure;altitude;pressure_sealevel;temperature;humidity
13695;BME280;6919;52.344;14.518;2022-12-07T00:01:46;100341.34;;;6.84;100.00
13695;BME280;6919;52.344;14.518;2022-12-07T00:04:17;100335.84;;;6.66;100.00
13695;BME280;6919;52.344;14.518;2022-12-07T00:06:50;100345.13;;;6.81;100.00
13695;BME280;6919;52.344;14.518;2022-12-07T00:09:21;100331.53;;;6.94;100.00
13695;BME280;6919;52.344;14.518;2022-12-07T00:11:51;100340.03;;;6.59;100.00
13695;BME280;6919;52.344;14.518;2022-12-07T00:14:20;100330.25;;;6.79;100.00
13695;BME280;6919;52.344;14.518;2022-12-07T00:16:50;100330.53;;;6.85;100.00
13695;BME280;6919;52.344;14.518;2022-12-07T00:19:19;100331.53;;;6.84;100.00
13695;BME280;6919;52.344;14.518;2022-12-07T00:21:47;100332.25;;;6.96;100.00
13695;BME280;6919;52.344;14.518;2022-12-07T00:24:15;100328.75;;;6.95;100.00
13695;BME280;6919;52.344;14.518;2022-12-07T00:26:45;100325.47;;;6.73;100.00
13695;BME280;6919;52.344;14.518;2022-12-07T00:29:17;100322.00;;;6.82;100.00
13695;BME280;6919;52.344;14.518;2022-12-07T00:31:46;100320.13;;;6.73;100.00
13695;BME280;6919;52.344;14.518;2022-12-07T00:34:17;100309.94;;;6.78;100.00
13695;BME280;6919;52.344;14.518;2022-12-07T00:36:46;100307.94;;;6.70;100.00
13695;BME280;6919;52.344;14.518;2022-12-07T00:39:15;100306.31;;;6.49;100.00
13695;BME280;6919;52.344;14.518;2022-12-07T00:41:45;100297.66;;;6.56;100.00
13695;BME280;6919;52.344;14.518;2022-12-07T00:44:13;100298.19;;;6.50;100.00
13695;BME280;6919;52.344;14.518;2022-12-07T00:46:42;100304.13;;;6.63;100.00
13695;BME280;6919;52.344;14.518;2022-12-07T00:49:12;100308.59;;;6.53;100.00
13695;BME280;6919;52.344;14.518;2022-12-07T00:51:40;100311.38;;;6.52;100.00
13695;BME280;6919;52.344;14.518;2022-12-07T00:54:08;100306.41;;;6.68;100.00
13695;BME280;6919;52.344;14.518;2022-12-07T00:56:36;100306.25;;;6.69;100.00
13695;BME280;6919;52.344;14.518;2022-12-07T00:59:06;100305.75;;;6.85;100.00
13695;BME280;6919;52.344;14.518;2022-12-07T01:01:36;100299.84;;;6.91;100.00
13695;BME280;6919;52.344;14.518;2022-12-07T01:04:05;100303.34;;;6.72;100.00
13695;BME280;6919;52.344;14.518;2022-12-07T01:06:34;100300.81;;;6.80;100.00
13695;BME280;6919;52.344;14.518;2022-12-07T01:09:03;100290.69;;;6.74;100.00
13695;BME280;6919;52.344;14.518;2022-12-07T01:11:33;100295.06;;;6.85;100.00
13695;BME280;6919;52.344;14.518;2022-12-07T01:14:01;100286.09;;;6.86;100.00
13695;BME280;6919;52.344;14.518;2022-12-07T01:16:32;100280.63;;;6.78;100.00
13695;BME280;6919;52.344;14.518;2022-12-07T01:19:02;100287.13;;;6.45;100.00
13695;BME280;6919;52.344;14.518;2022-12-07T01:21:34;100295.66;;;6.39;100.00
13695;BME280;6919;52.344;14.518;2022-12-07T01:24:07;100287.75;;;6.28;100.00
13695;BME280;6919;52.344;14.518;2022-12-07T01:26:37;100289.13;;;6.13;100.00
13695;BME280;6919;52.344;14.518;2022-12-07T01:29:05;100291.19;;;6.09;100.00
13695;BME280;6919;52.344;14.518;2022-12-07T01:31:35;100287.47;;;6.22;100.00
13695;BME280;6919;52.344;14.518;2022-12-07T01:34:03;100286.91;;;6.28;100.00
13695;BME280;6919;52.344;14.518;2022-12-07T01:36:35;100269.59;;;6.43;100.00
13695;BME280;6919;52.344;14.518;2022-12-07T01:39:05;100282.28;;;6.20;100.00
13695;BME280;6919;52.344;14.518;2022-12-07T01:41:38;100270.69;;;6.40;100.00
13695;BME280;6919;52.344;14.518;2022-12-07T01:44:12;100273.81;;;6.55;100.00
13695;BME280;6919;52.344;14.518;2022-12-07T01:46:44;100267.81;;;6.53;100.00
13695;BME280;6919;52.344;14.518;2022-12-07T01:49:21;100259.38;;;6.48;100.00
13695;BME280;6919;52.344;14.518;2022-12-07T01:51:58;100254.19;;;6.56;100.00
13695;BME280;6919;52.344;14.518;2022-12-07T01:54:28;100259.34;;;6.38;100.00
13695;BME280;6919;52.344;14.518;2022-12-07T01:56:57;100259.75;;;6.34;100.00
13695;BME280;6919;52.344;14.518;2022-12-07T01:59:27;100265.28;;;6.12;100.00
13695;BME280;6919;52.344;14.518;2022-12-07T02:01:57;100252.88;;;6.22;100.00
13695;BME280;6919;52.344;14.518;2022-12-07T02:04:25;100254.91;;;6.08;100.00
13695;BME280;6919;52.344;14.518;2022-12-07T02:06:55;100250.91;;;6.24;100.00
13695;BME280;6919;52.344;14.518;2022-12-07T02:09:26;100250.03;;;5.83;100.00
13695;BME280;6919;52.344;14.518;2022-12-07T02:11:55;100259.50;;;5.76;100.00
13695;BME280;6919;52.344;14.518;2022-12-07T02:14:24;100261.38;;;5.65;100.00
13695;BME280;6919;52.344;14.518;2022-12-07T02:17:06;100260.34;;;5.56;100.00
13695;BME280;6919;52.344;14.518;2022-12-07T02:20:16;100254.94;;;5.67;100.00
13695;BME280;6919;52.344;14.518;2022-12-07T02:23:21;100247.72;;;5.28;100.00
13695;BME280;6919;52.344;14.518;2022-12-07T02:26:44;100254.28;;;5.45;100.00
13695;BME280;6919;52.344;14.518;2022-12-07T02:29:23;100254.06;;;5.16;100.00
13695;BME280;6919;52.344;14.518;2022-12-07T02:32:02;100255.22;;;5.44;100.00
13695;BME280;6919;52.344;14.518;2022-12-07T02:34:44;100247.78;;;5.17;100.00
13695;BME280;6919;52.344;14.518;2022-12-07T02:37:28;100247.44;;;5.31;100.00
13695;BME280;6919;52.344;14.518;2022-12-07T02:40:08;100241.47;;;4.66;100.00
13695;BME280;6919;52.344;14.518;2022-12-07T02:42:43;100246.97;;;4.43;100.00
13695;BME280;6919;52.344;14.518;2022-12-07T02:45:20;100252.22;;;4.96;100.00
13695;BME280;6919;52.344;14.518;2022-12-07T02:47:53;100248.63;;;4.97;100.00
13695;BME280;6919;52.344;14.518;2022-12-07T02:50:27;100247.72;;;4.76;100.00
13695;BME280;6919;52.344;14.518;2022-12-07T02:52:55;100246.16;;;4.74;100.00
13695;BME280;6919;52.344;14.518;2022-12-07T02:55:31;100241.81;;;5.04;100.00
13695;BME280;6919;52.344;14.518;2022-12-07T02:58:25;100235.66;;;5.24;100.00
13695;BME280;6919;52.344;14.518;2022-12-07T03:01:16;100236.25;;;4.76;100.00
13695;BME280;6919;52.344;14.518;2022-12-07T03:04:08;100241.94;;;5.03;100.00
13695;BME280;6919;52.344;14.518;2022-12-07T03:06:49;100239.59;;;4.89;100.00
13695;BME280;6919;52.344;14.518;2022-12-07T03:09:27;100233.50;;;4.98;100.00
13695;BME280;6919;52.344;14.518;2022-12-07T03:12:08;100232.44;;;4.89;100.00
13695;BME280;6919;52.344;14.518;2022-12-07T03:14:45;100226.69;;;5.05;100.00
13695;BME280;6919;52.344;14.518;2022-12-07T03:17:21;100226.31;;;4.89;100.00
13695;BME280;6919;52.344;14.518;2022-12-07T03:19:57;100235.69;;;4.61;100.00
13695;BME280;6919;52.344;14.518;2022-12-07T03:22:31;100228.34;;;4.65;100.00
13695;BME280;6919;52.344;14.518;2022-12-07T03:25:07;100223.59;;;5.00;100.00
13695;BME280;6919;52.344;14.518;2022-12-07T03:27:42;100230.72;;;4.99;100.00
13695;BME280;6919;52.344;14.518;2022-12-07T03:30:17;100218.03;;;4.71;100.00
13695;BME280;6919;52.344;14.518;2022-12-07T03:32:53;100224.56;;;4.67;100.00
13695;BME280;6919;52.344;14.518;2022-12-07T03:35:30;100220.69;;;4.71;100.00
13695;BME280;6919;52.344;14.518;2022-12-07T03:38:10;100216.22;;;4.29;100.00
13695;BME280;6919;52.344;14.518;2022-12-07T03:40:47;100211.53;;;4.33;100.00
13695;BME280;6919;52.344;14.518;2022-12-07T03:43:18;100202.16;;;4.07;100.00
13695;BME280;6919;52.344;14.518;2022-12-07T03:46:00;100206.97;;;4.24;100.00
13695;BME280;6919;52.344;14.518;2022-12-07T03:48:37;100201.09;;;4.09;100.00
13695;BME280;6919;52.344;14.518;2022-12-07T03:51:16;100210.63;;;3.90;100.00
13695;BME280;6919;52.344;14.518;2022-12-07T03:53:53;100204.94;;;4.16;100.00
13695;BME280;6919;52.344;14.518;2022-12-07T03:56:25;100200.84;;;4.01;100.00
13695;BME280;6919;52.344;14.518;2022-12-07T03:58:54;100203.91;;;3.86;100.00
13695;BME280;6919;52.344;14.518;2022-12-07T04:01:23;100198.91;;;4.03;100.00
13695;BME280;6919;52.344;14.518;2022-12-07T04:03:53;100186.00;;;4.10;100.00
13695;BME280;6919;52.344;14.518;2022-12-07T04:06:21;100189.00;;;4.27;100.00
13695;BME280;6919;52.344;14.518;2022-12-07T04:08:50;100178.50;;;4.57;100.00
13695;BME280;6919;52.344;14.518;2022-12-07T04:11:18;100187.44;;;4.25;100.00
13695;BME280;6919;52.344;14.518;2022-12-07T04:13:46;100175.53;;;3.97;100.00
13695;BME280;6919;52.344;14.518;2022-12-07T04:16:32;100175.50;;;4.08;100.00
13695;BME280;6919;52.344;14.518;2022-12-07T04:19:10;100168.88;;;4.14;100.00
13695;BME280;6919;52.344;14.518;2022-12-07T04:21:38;100169.59;;;4.47;100.00
13695;BME280;6919;52.344;14.518;2022-12-07T04:24:07;100157.34;;;4.35;100.00
13695;BME280;6919;52.344;14.518;2022-12-07T04:26:35;100159.53;;;4.41;100.00
13695;BME280;6919;52.344;14.518;2022-12-07T04:29:03;100152.03;;;4.35;100.00
13695;BME280;6919;52.344;14.518;2022-12-07T04:31:34;100150.00;;;4.39;100.00
13695;BME280;6919;52.344;14.518;2022-12-07T04:34:03;100146.41;;;4.29;100.00
13695;BME280;6919;52.344;14.518;2022-12-07T04:36:34;100149.63;;;4.32;100.00
13695;BME280;6919;52.344;14.518;2022-12-07T04:39:04;100147.63;;;4.25;100.00
13695;BME280;6919;52.344;14.518;2022-12-07T04:41:33;100157.75;;;4.20;100.00
13695;BME280;6919;52.344;14.518;2022-12-07T04:44:03;100163.56;;;4.14;100.00
13695;BME280;6919;52.344;14.518;2022-12-07T04:46:34;100157.22;;;4.05;100.00
13695;BME280;6919;52.344;14.518;2022-12-07T04:49:02;100161.31;;;3.98;100.00
13695;BME280;6919;52.344;14.518;2022-12-07T04:51:30;100146.84;;;4.02;100.00
13695;BME280;6919;52.344;14.518;2022-12-07T04:54:00;100138.91;;;3.91;100.00
13695;BME280;6919;52.344;14.518;2022-12-07T04:56:28;100139.84;;;3.90;100.00
13695;BME280;6919;52.344;14.518;2022-12-07T04:58:56;100135.13;;;4.05;100.00
13695;BME280;6919;52.344;14.518;2022-12-07T05:01:25;100126.28;;;4.15;100.00
13695;BME280;6919;52.344;14.518;2022-12-07T05:03:53;100115.41;;;3.87;100.00
13695;BME280;6919;52.344;14.518;2022-12-07T05:06:21;100119.66;;;3.78;100.00
13695;BME280;6919;52.344;14.518;2022-12-07T05:08:49;100121.66;;;3.97;100.00
13695;BME280;6919;52.344;14.518;2022-12-07T05:11:19;100114.06;;;3.92;100.00
13695;BME280;6919;52.344;14.518;2022-12-07T05:14:16;100100.97;;;4.11;100.00
13695;BME280;6919;52.344;14.518;2022-12-07T05:16:48;100100.53;;;4.06;100.00
13695;BME280;6919;52.344;14.518;2022-12-07T05:19:19;100100.53;;;4.06;100.00
13695;BME280;6919;52.344;14.518;2022-12-07T05:21:47;100102.47;;;4.04;100.00
13695;BME280;6919;52.344;14.518;2022-12-07T05:24:16;100094.25;;;4.07;100.00
13695;BME280;6919;52.344;14.518;2022-12-07T05:26:46;100088.50;;;4.02;100.00
13695;BME280;6919;52.344;14.518;2022-12-07T05:29:16;100087.63;;;4.02;100.00
13695;BME280;6919;52.344;14.518;2022-12-07T05:31:45;100086.38;;;4.17;100.00
13695;BME280;6919;52.344;14.518;2022-12-07T05:34:13;100078.63;;;3.93;100.00
13695;BME280;6919;52.344;14.518;2022-12-07T05:36:41;100068.50;;;3.87;100.00
13695;BME280;6919;52.344;14.518;2022-12-07T05:39:10;100078.81;;;4.01;100.00
13695;BME280;6919;52.344;14.518;2022-12-07T05:41:38;100074.66;;;3.88;100.00
13695;BME280;6919;52.344;14.518;2022-12-07T05:44:26;100061.78;;;3.83;100.00
13695;BME280;6919;52.344;14.518;2022-12-07T05:46:54;100054.81;;;3.71;100.00
13695;BME280;6919;52.344;14.518;2022-12-07T05:49:22;100062.00;;;3.91;100.00
13695;BME280;6919;52.344;14.518;2022-12-07T05:51:51;100058.34;;;3.50;100.00
13695;BME280;6919;52.344;14.518;2022-12-07T05:54:19;100054.06;;;3.80;100.00
13695;BME280;6919;52.344;14.518;2022-12-07T05:56:47;100054.16;;;3.47;100.00
13695;BME280;6919;52.344;14.518;2022-12-07T05:59:16;100064.41;;;3.41;100.00
13695;BME280;6919;52.344;14.518;2022-12-07T06:01:51;100059.81;;;3.43;100.00
13695;BME280;6919;52.344;14.518;2022-12-07T06:04:21;100055.13;;;3.35;100.00
13695;BME280;6919;52.344;14.518;2022-12-07T06:06:49;100062.34;;;3.33;100.00
13695;BME280;6919;52.344;14.518;2022-12-07T06:09:19;100050.28;;;3.51;100.00
13695;BME280;6919;52.344;14.518;2022-12-07T06:11:47;100048.13;;;3.34;100.00
13695;BME280;6919;52.344;14.518;2022-12-07T06:14:33;100055.25;;;3.34;100.00
13695;BME280;6919;52.344;14.518;2022-12-07T06:17:03;100044.03;;;3.41;100.00
13695;BME280;6919;52.344;14.518;2022-12-07T06:19:32;100040.06;;;3.36;100.00
13695;BME280;6919;52.344;14.518;2022-12-07T06:22:00;100042.69;;;3.58;100.00
13695;BME280;6919;52.344;14.518;2022-12-07T06:24:29;100041.88;;;3.35;100.00
13695;BME280;6919;52.344;14.518;2022-12-07T06:26:58;100028.25;;;3.51;100.00
13695;BME280;6919;52.344;14.518;2022-12-07T06:29:26;100040.44;;;3.42;100.00
13695;BME280;6919;52.344;14.518;2022-12-07T06:31:54;100030.44;;;3.35;100.00
13695;BME280;6919;52.344;14.518;2022-12-07T06:34:26;100027.41;;;3.50;100.00
13695;BME280;6919;52.344;14.518;2022-12-07T06:36:55;100026.94;;;3.23;100.00
13695;BME280;6919;52.344;14.518;2022-12-07T06:39:26;100027.91;;;3.33;100.00
13695;BME280;6919;52.344;14.518;2022-12-07T06:41:55;100031.16;;;3.14;100.00
13695;BME280;6919;52.344;14.518;2022-12-07T06:44:24;100023.94;;;3.39;100.00
13695;BME280;6919;52.344;14.518;2022-12-07T06:46:53;100029.44;;;3.47;100.00
13695;BME280;6919;52.344;14.518;2022-12-07T06:49:42;100027.41;;;3.50;100.00
13695;BME280;6919;52.344;14.518;2022-12-07T06:52:11;100030.41;;;3.46;100.00
13695;BME280;6919;52.344;14.518;2022-12-07T06:54:39;100026.22;;;3.43;100.00
13695;BME280;6919;52.344;14.518;2022-12-07T06:57:07;100014.88;;;3.52;100.00
13695;BME280;6919;52.344;14.518;2022-12-07T06:59:35;100012.34;;;3.51;100.00
13695;BME280;6919;52.344;14.518;2022-12-07T07:02:04;100022.34;;;3.47;100.00
13695;BME280;6919;52.344;14.518;2022-12-07T07:04:35;100018.97;;;3.34;100.00
13695;BME280;6919;52.344;14.518;2022-12-07T07:07:05;100007.53;;;3.45;100.00
13695;BME280;6919;52.344;14.518;2022-12-07T07:09:33;100010.41;;;3.53;100.00
13695;BME280;6919;52.344;14.518;2022-12-07T07:12:01;100014.38;;;3.58;100.00
13695;BME280;6919;52.344;14.518;2022-12-07T07:14:29;100019.00;;;3.45;100.00
13695;BME280;6919;52.344;14.518;2022-12-07T07:16:57;100012.94;;;3.54;100.00
13695;BME280;6919;52.344;14.518;2022-12-07T07:19:26;100012.47;;;3.49;100.00
13695;BME280;6919;52.344;14.518;2022-12-07T07:21:54;100008.09;;;3.70;100.00
13695;BME280;6919;52.344;14.518;2022-12-07T07:24:23;100005.22;;;3.51;100.00
13695;BME280;6919;52.344;14.518;2022-12-07T07:26:52;99995.16;;;3.45;100.00
13695;BME280;6919;52.344;14.518;2022-12-07T07:29:20;99993.13;;;3.69;100.00
13695;BME280;6919;52.344;14.518;2022-12-07T07:31:48;99983.56;;;3.78;100.00
13695;BME280;6919;52.344;14.518;2022-12-07T07:34:17;99993.84;;;3.71;100.00
13695;BME280;6919;52.344;14.518;2022-12-07T07:36:45;99987.81;;;3.69;100.00
13695;BME280;6919;52.344;14.518;2022-12-07T07:39:14;99984.13;;;3.61;100.00
13695;BME280;6919;52.344;14.518;2022-12-07T07:41:43;99991.91;;;3.73;100.00
13695;BME280;6919;52.344;14.518;2022-12-07T07:44:12;99992.91;;;3.61;100.00
13695;BME280;6919;52.344;14.518;2022-12-07T07:46:40;99989.72;;;3.78;100.00
13695;BME280;6919;52.344;14.518;2022-12-07T07:49:09;99979.41;;;3.96;100.00
13695;BME280;6919;52.344;14.518;2022-12-07T07:51:38;99979.44;;;3.85;100.00
13695;BME280;6919;52.344;14.518;2022-12-07T07:54:06;99977.94;;;3.71;100.00
13695;BME280;6919;52.344;14.518;2022-12-07T07:56:34;99985.66;;;3.74;100.00
13695;BME280;6919;52.344;14.518;2022-12-07T07:59:04;99984.81;;;3.74;100.00
13695;BME280;6919;52.344;14.518;2022-12-07T08:01:32;99993.69;;;3.84;100.00
13695;BME280;6919;52.344;14.518;2022-12-07T08:04:00;99987.22;;;3.97;100.00
13695;BME280;6919;52.344;14.518;2022-12-07T08:06:29;99994.31;;;3.76;100.00
13695;BME280;6919;52.344;14.518;2022-12-07T08:08:58;99987.81;;;3.69;100.00
13695;BME280;6919;52.344;14.518;2022-12-07T08:11:27;99996.03;;;3.98;100.00
13695;BME280;6919;52.344;14.518;2022-12-07T08:13:55;99987.78;;;4.12;100.00
13695;BME280;6919;52.344;14.518;2022-12-07T08:16:25;99990.97;;;4.26;100.00
13695;BME280;6919;52.344;14.518;2022-12-07T08:18:53;99986.06;;;3.90;100.00
13695;BME280;6919;52.344;14.518;2022-12-07T08:21:21;99990.59;;;3.99;100.00
13695;BME280;6919;52.344;14.518;2022-12-07T08:23:50;99990.97;;;4.26;100.00
13695;BME280;6919;52.344;14.518;2022-12-07T08:26:18;99974.94;;;4.17;100.00
13695;BME280;6919;52.344;14.518;2022-12-07T08:28:46;99972.97;;;4.09;100.00
13695;BME280;6919;52.344;14.518;2022-12-07T08:31:17;99970.75;;;4.14;100.00
13695;BME280;6919;52.344;14.518;2022-12-07T08:33:48;99967.25;;;4.34;100.00
13695;BME280;6919;52.344;14.518;2022-12-07T08:36:17;99975.47;;;4.31;100.00
13695;BME280;6919;52.344;14.518;2022-12-07T08:38:45;99966.75;;;4.20;100.00
13695;BME280;6919;52.344;14.518;2022-12-07T08:41:34;99965.50;;;4.24;100.00
13695;BME280;6919;52.344;14.518;2022-12-07T08:44:03;99972.56;;;4.34;100.00
13695;BME280;6919;52.344;14.518;2022-12-07T08:46:35;99973.66;;;4.52;100.00
13695;BME280;6919;52.344;14.518;2022-12-07T08:49:12;99965.88;;;4.60;100.00
13695;BME280;6919;52.344;14.518;2022-12-07T08:51:41;99972.66;;;4.53;100.00
13695;BME280;6919;52.344;14.518;2022-12-07T08:54:15;99972.88;;;4.91;100.00
13695;BME280;6919;52.344;14.518;2022-12-07T08:56:46;99977.88;;;4.85;100.00
13695;BME280;6919;52.344;14.518;2022-12-07T08:59:23;99968.75;;;4.78;100.00
13695;BME280;6919;52.344;14.518;2022-12-07T09:01:51;99957.63;;;4.63;100.00
13695;BME280;6919;52.344;14.518;2022-12-07T09:04:21;99950.06;;;4.59;100.00
13695;BME280;6919;52.344;14.518;2022-12-07T09:06:50;99956.63;;;4.85;100.00
13695;BME280;6919;52.344;14.518;2022-12-07T09:09:18;99956.94;;;4.91;100.00
13695;BME280;6919;52.344;14.518;2022-12-07T09:11:47;99965.75;;;4.92;100.00
13695;BME280;6919;52.344;14.518;2022-12-07T09:14:15;99958.44;;;5.24;100.00
13695;BME280;6919;52.344;14.518;2022-12-07T09:16:44;99955.66;;;5.25;100.00
13695;BME280;6919;52.344;14.518;2022-12-07T09:19:12;99967.41;;;5.32;100.00
13695;BME280;6919;52.344;14.518;2022-12-07T09:21:42;99964.75;;;5.32;100.00
13695;BME280;6919;52.344;14.518;2022-12-07T09:24:12;99962.63;;;5.26;100.00
13695;BME280;6919;52.344;14.518;2022-12-07T09:26:40;99955.91;;;5.22;100.00
13695;BME280;6919;52.344;14.518;2022-12-07T09:29:08;99950.47;;;5.24;100.00
13695;BME280;6919;52.344;14.518;2022-12-07T09:31:37;99952.53;;;5.20;100.00
13695;BME280;6919;52.344;14.518;2022-12-07T09:34:05;99953.88;;;5.45;100.00
13695;BME280;6919;52.344;14.518;2022-12-07T09:36:34;99950.09;;;5.57;100.00
13695;BME280;6919;52.344;14.518;2022-12-07T09:39:04;99945.03;;;5.44;100.00
13695;BME280;6919;52.344;14.518;2022-12-07T09:41:32;99951.34;;;5.53;100.00
13695;BME280;6919;52.344;14.518;2022-12-07T09:44:06;99957.06;;;5.58;100.00
13695;BME280;6919;52.344;14.518;2022-12-07T09:46:38;99960.22;;;5.91;100.00
13695;BME280;6919;52.344;14.518;2022-12-07T09:49:12;99957.97;;;5.87;100.00
13695;BME280;6919;52.344;14.518;2022-12-07T09:51:42;99965.81;;;6.07;100.00
13695;BME280;6919;52.344;14.518;2022-12-07T09:54:15;99957.41;;;6.22;100.00
13695;BME280;6919;52.344;14.518;2022-12-07T09:56:47;99950.97;;;6.15;100.00
13695;BME280;6919;52.344;14.518;2022-12-07T09:59:18;99957.69;;;5.99;100.00
13695;BME280;6919;52.344;14.518;2022-12-07T10:01:49;99946.59;;;5.75;100.00
13695;BME280;6919;52.344;14.518;2022-12-07T10:04:21;99951.34;;;6.29;100.00
13695;BME280;6919;52.344;14.518;2022-12-07T10:06:50;99955.97;;;6.27;100.00
13695;BME280;6919;52.344;14.518;2022-12-07T10:09:21;99947.69;;;5.73;100.00
13695;BME280;6919;52.344;14.518;2022-12-07T10:12:04;99960.72;;;5.66;100.00
13695;BME280;6919;52.344;14.518;2022-12-07T10:14:35;99957.13;;;5.86;100.00
13695;BME280;6919;52.344;14.518;2022-12-07T10:17:33;99957.53;;;5.91;100.00
13695;BME280;6919;52.344;14.518;2022-12-07T10:20:22;99952.72;;;6.33;100.00
13695;BME280;6919;52.344;14.518;2022-12-07T10:22:58;99962.44;;;5.96;100.00
13695;BME280;6919;52.344;14.518;2022-12-07T10:25:30;99969.44;;;5.97;100.00
13695;BME280;6919;52.344;14.518;2022-12-07T10:28:11;99981.19;;;6.13;100.00
13695;BME280;6919;52.344;14.518;2022-12-07T10:30:55;99978.28;;;5.88;100.00
13695;BME280;6919;52.344;14.518;2022-12-07T10:33:33;99982.03;;;6.24;100.00
13695;BME280;6919;52.344;14.518;2022-12-07T10:36:19;99974.47;;;6.29;100.00
13695;BME280;6919;52.344;14.518;2022-12-07T10:38:49;99979.63;;;6.49;100.00
13695;BME280;6919;52.344;14.518;2022-12-07T10:41:19;99988.63;;;6.10;100.00
13695;BME280;6919;52.344;14.518;2022-12-07T10:43:54;99984.28;;;6.28;100.00
13695;BME280;6919;52.344;14.518;2022-12-07T10:46:55;99983.94;;;6.60;100.00
13695;BME280;6919;52.344;14.518;2022-12-07T10:50:14;99976.00;;;6.41;100.00
13695;BME280;6919;52.344;14.518;2022-12-07T10:53:01;99972.34;;;6.42;100.00
13695;BME280;6919;52.344;14.518;2022-12-07T10:55:56;99966.66;;;5.98;100.00
13695;BME280;6919;52.344;14.518;2022-12-07T10:58:54;99978.25;;;5.78;100.00
13695;BME280;6919;52.344;14.518;2022-12-07T11:01:33;99972.09;;;6.26;100.00
13695;BME280;6919;52.344;14.518;2022-12-07T11:04:21;99976.84;;;6.41;100.00
13695;BME280;6919;52.344;14.518;2022-12-07T11:07:01;99968.78;;;6.60;100.00
13695;BME280;6919;52.344;14.518;2022-12-07T11:09:54;99968.03;;;6.77;100.00
13695;BME280;6919;52.344;14.518;2022-12-07T11:13:04;99970.75;;;6.68;100.00
13695;BME280;6919;52.344;14.518;2022-12-07T11:15:55;99965.59;;;6.57;100.00
13695;BME280;6919;52.344;14.518;2022-12-07T11:18:39;99973.28;;;6.60;100.00
13695;BME280;6919;52.344;14.518;2022-12-07T11:21:21;99948.16;;;6.72;100.00
13695;BME280;6919;52.344;14.518;2022-12-07T11:24:01;99965.13;;;6.71;100.00
13695;BME280;6919;52.344;14.518;2022-12-07T11:26:50;99964.81;;;6.74;100.00
13695;BME280;6919;52.344;14.518;2022-12-07T11:29:44;99963.56;;;6.78;100.00
13695;BME280;6919;52.344;14.518;2022-12-07T11:32:34;99964.63;;;6.94;100.00
13695;BME280;6919;52.344;14.518;2022-12-07T11:35:16;99963.38;;;6.89;100.00
13695;BME280;6919;52.344;14.518;2022-12-07T11:37:49;99970.47;;;6.71;100.00
13695;BME280;6919;52.344;14.518;2022-12-07T11:40:26;99972.69;;;6.66;100.00
13695;BME280;6919;52.344;14.518;2022-12-07T11:43:00;99965.28;;;6.60;100.00
13695;BME280;6919;52.344;14.518;2022-12-07T11:45:33;99959.44;;;6.47;100.00
13695;BME280;6919;52.344;14.518;2022-12-07T11:48:12;99961.91;;;6.67;100.00
13695;BME280;6919;52.344;14.518;2022-12-07T11:50:47;99969.66;;;6.42;100.00
13695;BME280;6919;52.344;14.518;2022-12-07T11:53:23;99971.38;;;6.43;100.00
13695;BME280;6919;52.344;14.518;2022-12-07T11:55:59;99977.97;;;5.81;100.00
13695;BME280;6919;52.344;14.518;2022-12-07T11:58:48;99987.94;;;6.18;100.00
13695;BME280;6919;52.344;14.518;2022-12-07T12:01:37;99991.84;;;6.13;100.00
13695;BME280;6919;52.344;14.518;2022-12-07T12:04:28;99995.78;;;6.19;100.00
13695;BME280;6919;52.344;14.518;2022-12-07T12:07:05;99992.94;;;6.40;100.00
13695;BME280;6919;52.344;14.518;2022-12-07T12:09:59;100007.69;;;6.34;100.00
13695;BME280;6919;52.344;14.518;2022-12-07T12:16:17;100004.00;;;6.45;100.00
13695;BME280;6919;52.344;14.518;2022-12-07T12:19:22;99999.66;;;6.44;100.00
13695;BME280;6919;52.344;14.518;2022-12-07T12:22:00;100009.75;;;6.40;100.00
13695;BME280;6919;52.344;14.518;2022-12-07T12:24:34;99994.50;;;6.42;100.00
13695;BME280;6919;52.344;14.518;2022-12-07T12:27:08;100000.09;;;6.30;100.00
13695;BME280;6919;52.344;14.518;2022-12-07T12:29:41;100004.75;;;6.08;100.00
13695;BME280;6919;52.344;14.518;2022-12-07T12:32:20;100001.38;;;6.26;100.00
13695;BME280;6919;52.344;14.518;2022-12-07T12:35:26;100004.44;;;6.31;100.00
13695;BME280;6919;52.344;14.518;2022-12-07T12:37:55;99994.09;;;5.99;100.00
13695;BME280;6919;52.344;14.518;2022-12-07T12:40:44;99994.94;;;6.19;100.00
13695;BME280;6919;52.344;14.518;2022-12-07T12:43:50;100000.13;;;6.11;100.00
13695;BME280;6919;52.344;14.518;2022-12-07T12:46:53;100000.53;;;6.16;100.00
13695;BME280;6919;52.344;14.518;2022-12-07T12:49:40;99990.97;;;6.42;100.00
13695;BME280;6919;52.344;14.518;2022-12-07T12:52:54;99978.78;;;6.49;100.00
13695;BME280;6919;52.344;14.518;2022-12-07T12:59:26;99982.38;;;6.67;100.00
13695;BME280;6919;52.344;14.518;2022-12-07T13:02:16;99977.19;;;6.75;100.00
13695;BME280;6919;52.344;14.518;2022-12-07T13:04:55;99990.16;;;6.41;100.00
13695;BME280;6919;52.344;14.518;2022-12-07T13:07:56;99985.50;;;6.53;100.00
13695;BME280;6919;52.344;14.518;2022-12-07T13:10:40;99988.44;;;6.40;100.00
13695;BME280;6919;52.344;14.518;2022-12-07T13:13:32;99994.31;;;6.53;100.00
13695;BME280;6919;52.344;14.518;2022-12-07T13:16:47;99993.34;;;6.45;100.00
13695;BME280;6919;52.344;14.518;2022-12-07T13:19:58;99991.28;;;6.39;100.00
13695;BME280;6919;52.344;14.518;2022-12-07T13:22:59;99991.25;;;6.48;100.00
13695;BME280;6919;52.344;14.518;2022-12-07T13:26:14;99996.00;;;6.64;100.00
13695;BME280;6919;52.344;14.518;2022-12-07T13:28:47;99998.28;;;6.40;100.00
13695;BME280;6919;52.344;14.518;2022-12-07T13:31:30;99994.56;;;6.60;100.00
13695;BME280;6919;52.344;14.518;2022-12-07T13:34:00;99993.75;;;6.59;100.00
13695;BME280;6919;52.344;14.518;2022-12-07T13:36:33;99998.41;;;6.48;100.00
13695;BME280;6919;52.344;14.518;2022-12-07T13:39:21;99993.78;;;6.50;100.00
13695;BME280;6919;52.344;14.518;2022-12-07T13:41:52;99992.13;;;6.20;100.00
13695;BME280;6919;52.344;14.518;2022-12-07T13:44:23;99997.72;;;5.88;100.00